Maasdam — PFRO — position and weather

sailwx.info

Track history (hours):
 
Tides and Currents Weather Stations Pressure Air Temp Water Temp Dewpoint Dewpoint Depression Visibility Wind Speed Wind Dir Waves Ship Positions

Maasdam

Operator: Holland America Line

Last reported at 2018-Jun-17 07:43 UTC. Time now 2018-Jun-20 15:28 UTC.
Position N 43°44' W 068°28'.

MMSI: 244958000.

Date/timePositionNaut miles runAvg speedWind from/ knotsBaromVisibWave heightAir tempDewpointWater temp
2018-Jun-17 07:43N 43°44' W 068°28'515.4
2018-Jun-17 07:24N 43°40' W 068°32'1015.6
2018-Jun-17 06:47N 43°33' W 068°42'516.2
2018-Jun-17 06:29N 43°30' W 068°47'815.7
2018-Jun-17 05:58N 43°25' W 068°56'715.6
2018-Jun-17 05:29N 43°21' W 069°04'3915.7
2018-Jun-17 02:59N 42°57' W 069°47'715.5
2018-Jun-17 02:30N 42°52' W 069°55'714.8
2018-Jun-17 02:00N 42°48' W 070°03'815.9
2018-Jun-17 01:30N 42°43' W 070°12'917.3
2018-Jun-17 01:00N 42°38' W 070°21'917.6
2018-Jun-17 00:30N 42°32' W 070°31'817.4
2018-Jun-17 00:00N 42°28' W 070°41'917.6
2018-Jun-16 23:31N 42°23' W 070°51'713.3
2018-Jun-16 23:01N 42°20' W 070°58'3 5.3
2018-Jun-16 22:30N 42°21' W 071°02'0 0.0
2018-Jun-16 21:59N 42°21' W 071°02'0 0.0
2018-Jun-16 21:29N 42°21' W 071°02'0 0.0
2018-Jun-16 20:59N 42°21' W 071°02'0 0.0
2018-Jun-16 20:29N 42°21' W 071°02'0 0.0
2018-Jun-16 19:59N 42°21' W 071°02'0 0.0
2018-Jun-16 19:29N 42°21' W 071°02'0 0.0
2018-Jun-16 18:59N 42°21' W 071°02'0 0.0
2018-Jun-16 18:29N 42°21' W 071°02'0 0.0
2018-Jun-16 17:59N 42°21' W 071°02'0 0.0
2018-Jun-16 17:29N 42°21' W 071°02'0 0.0
2018-Jun-16 16:59N 42°21' W 071°02'0 0.0
2018-Jun-16 16:29N 42°21' W 071°02'0 0.0
2018-Jun-16 15:59N 42°21' W 071°02'0 0.0
2018-Jun-16 15:29N 42°21' W 071°02'0 0.0
2018-Jun-16 14:59N 42°21' W 071°02'0 0.0
2018-Jun-16 14:29N 42°21' W 071°02'0 0.0
2018-Jun-16 13:59N 42°21' W 071°02'0 0.0
2018-Jun-16 13:29N 42°21' W 071°02'0 0.0
2018-Jun-16 12:59N 42°21' W 071°02'0 0.0
2018-Jun-16 12:29N 42°21' W 071°02'0 0.0
2018-Jun-16 11:59N 42°21' W 071°02'0 0.0
2018-Jun-16 11:29N 42°21' W 071°02'0 0.0
2018-Jun-16 10:59N 42°21' W 071°02'0 0.1
2018-Jun-16 10:30N 42°21' W 071°02'3 5.6
2018-Jun-16 10:00N 42°20' W 070°58'612.3
2018-Jun-16 09:30N 42°24' W 070°51'713.1
2018-Jun-16 09:01N 42°27' W 070°43'714.5
2018-Jun-16 08:30N 42°31' W 070°35'815.2
2018-Jun-16 08:00N 42°34' W 070°26'815.3
2018-Jun-16 07:30N 42°39' W 070°18'815.0
2018-Jun-16 07:00N 42°43' W 070°10'2170.8
2018-Jun-16 07:00N 42°42' W 070°12'1020.0 270 / 161015.510.8 16.014.318.0
2018-Jun-16 06:30N 42°48' W 070°02'816.8
2018-Jun-16 06:00N 42°53' W 069°53'816.9
2018-Jun-16 05:30N 42°58' W 069°43'917.4
2018-Jun-16 05:00N 43°04' W 069°34'917.4
2018-Jun-16 04:30N 43°09' W 069°25'917.3
2018-Jun-16 04:00N 43°15' W 069°16'1217.4
2018-Jun-16 03:20N 43°22' W 069°04'1315.6
2018-Jun-16 02:31N 43°31' W 068°50'012.7
2018-Jun-16 02:29N 43°31' W 068°50'912.3
2018-Jun-16 01:47N 43°36' W 068°40'3912.4
2018-Jun-15 22:37N 44°08' W 068°08'216.9
2018-Jun-15 22:30N 44°10' W 068°08'  
2018-Jun-11 08:00N 48°54' W 067°42'18617.4 350 / 181023.210.8 8.5 14.0
2018-Jun-10 21:18N 46°50' W 071°09'3 8.6
2018-Jun-10 21:00N 46°49' W 071°12'0 0.1
2018-Jun-10 19:37N 46°49' W 071°12'0 0.0
2018-Jun-10 19:28N 46°49' W 071°12'0 0.0
2018-Jun-10 18:13N 46°49' W 071°12'0 0.0
2018-Jun-10 17:43N 46°49' W 071°12'0 0.0
2018-Jun-10 17:16N 46°49' W 071°12'0 0.0
2018-Jun-10 16:46N 46°49' W 071°12'0 0.0
2018-Jun-10 16:04N 46°49' W 071°12'0 0.0
2018-Jun-10 14:52N 46°49' W 071°12'0 0.0
2018-Jun-10 12:22N 46°49' W 071°12'0 0.0
2018-Jun-10 10:43N 46°49' W 071°12'0 0.0
2018-Jun-10 10:28N 46°49' W 071°12'0 0.5
2018-Jun-10 09:59N 46°49' W 071°12'84 9.3
2018-Jun-10 01:00N 46°08' W 072°57'5 9.9
2018-Jun-10 00:31N 46°04' W 073°02'4 8.8
2018-Jun-10 00:01N 46°03' W 073°08'4 7.4
2018-Jun-09 23:31N 45°60' W 073°11'5 9.5
2018-Jun-09 23:00N 45°55' W 073°13'5 9.7
2018-Jun-09 22:30N 45°51' W 073°16'5 9.9
2018-Jun-09 22:01N 45°47' W 073°21'5 9.9
2018-Jun-09 21:30N 45°44' W 073°26'612.3
2018-Jun-09 21:00N 45°38' W 073°29'810.3
2018-Jun-09 20:12N 45°30' W 073°33'0 0.0
2018-Jun-09 09:45N 45°30' W 073°33'2 5.9
2018-Jun-09 09:29N 45°32' W 073°32'5 9.3
2018-Jun-09 08:58N 45°36' W 073°30'510.2
2018-Jun-09 08:30N 45°41' W 073°27'510.2
2018-Jun-09 08:00N 45°45' W 073°24'510.5
2018-Jun-09 07:30N 45°49' W 073°19'510.7
2018-Jun-09 07:00N 45°53' W 073°14'510.6
2018-Jun-09 06:30N 45°58' W 073°12'611.5
2018-Jun-09 06:00N 46°03' W 073°08'9011.5
2018-Jun-08 22:12N 46°46' W 071°14'2 9.3
2018-Jun-08 21:58N 46°48' W 071°12'1 0.6
2018-Jun-08 20:15N 46°49' W 071°12'0 0.0
2018-Jun-08 19:57N 46°49' W 071°12'0 0.0
2018-Jun-08 18:29N 46°49' W 071°12'0 0.0
2018-Jun-08 18:00N 46°49' W 071°12'0 0.0
2018-Jun-08 17:24N 46°49' W 071°12'0 0.0
2018-Jun-08 16:56N 46°49' W 071°12'0 0.0
2018-Jun-08 16:29N 46°49' W 071°12'0 0.0
2018-Jun-08 15:57N 46°49' W 071°12'0 0.0
2018-Jun-08 15:20N 46°49' W 071°12'0 0.0
2018-Jun-08 15:00N 46°49' W 071°12'0 0.0
2018-Jun-08 14:12N 46°49' W 071°12'0 0.0
2018-Jun-08 12:36N 46°49' W 071°12'0 0.0
2018-Jun-08 12:30N 46°49' W 071°12'0 0.1
2018-Jun-08 11:59N 46°49' W 071°12'  
Track history (hours):
 
Tides and Currents Weather Stations Pressure Air Temp Water Temp Dewpoint Dewpoint Depression Visibility Wind Speed Wind Dir Waves Ship Positions

Maasdam

Operator: Holland America Line

Last reported at 2018-Jun-17 07:43 UTC. Time now 2018-Jun-20 15:28 UTC.
Position N 43°44' W 068°28'.

MMSI: 244958000.

Date/timePositionNaut miles runAvg speedWind from/ knotsBaromVisibWave heightAir tempDewpointWater temp
2018-Jun-17 07:43N 43°44' W 068°28'515.4
2018-Jun-17 07:24N 43°40' W 068°32'1015.6
2018-Jun-17 06:47N 43°33' W 068°42'516.2
2018-Jun-17 06:29N 43°30' W 068°47'815.7
2018-Jun-17 05:58N 43°25' W 068°56'715.6
2018-Jun-17 05:29N 43°21' W 069°04'3915.7
2018-Jun-17 02:59N 42°57' W 069°47'715.5
2018-Jun-17 02:30N 42°52' W 069°55'714.8
2018-Jun-17 02:00N 42°48' W 070°03'815.9
2018-Jun-17 01:30N 42°43' W 070°12'917.3
2018-Jun-17 01:00N 42°38' W 070°21'917.6
2018-Jun-17 00:30N 42°32' W 070°31'817.4
2018-Jun-17 00:00N 42°28' W 070°41'917.6
2018-Jun-16 23:31N 42°23' W 070°51'713.3
2018-Jun-16 23:01N 42°20' W 070°58'3 5.3
2018-Jun-16 22:30N 42°21' W 071°02'0 0.0
2018-Jun-16 21:59N 42°21' W 071°02'0 0.0
2018-Jun-16 21:29N 42°21' W 071°02'0 0.0
2018-Jun-16 20:59N 42°21' W 071°02'0 0.0
2018-Jun-16 20:29N 42°21' W 071°02'0 0.0
2018-Jun-16 19:59N 42°21' W 071°02'0 0.0
2018-Jun-16 19:29N 42°21' W 071°02'0 0.0
2018-Jun-16 18:59N 42°21' W 071°02'0 0.0
2018-Jun-16 18:29N 42°21' W 071°02'0 0.0
2018-Jun-16 17:59N 42°21' W 071°02'0 0.0
2018-Jun-16 17:29N 42°21' W 071°02'0 0.0
2018-Jun-16 16:59N 42°21' W 071°02'0 0.0
2018-Jun-16 16:29N 42°21' W 071°02'0 0.0
2018-Jun-16 15:59N 42°21' W 071°02'0 0.0
2018-Jun-16 15:29N 42°21' W 071°02'0 0.0
2018-Jun-16 14:59N 42°21' W 071°02'0 0.0
2018-Jun-16 14:29N 42°21' W 071°02'0 0.0
2018-Jun-16 13:59N 42°21' W 071°02'0 0.0
2018-Jun-16 13:29N 42°21' W 071°02'0 0.0
2018-Jun-16 12:59N 42°21' W 071°02'0 0.0
2018-Jun-16 12:29N 42°21' W 071°02'0 0.0
2018-Jun-16 11:59N 42°21' W 071°02'0 0.0
2018-Jun-16 11:29N 42°21' W 071°02'0 0.0
2018-Jun-16 10:59N 42°21' W 071°02'0 0.1
2018-Jun-16 10:30N 42°21' W 071°02'3 5.6
2018-Jun-16 10:00N 42°20' W 070°58'612.3
2018-Jun-16 09:30N 42°24' W 070°51'713.1
2018-Jun-16 09:01N 42°27' W 070°43'714.5
2018-Jun-16 08:30N 42°31' W 070°35'815.2
2018-Jun-16 08:00N 42°34' W 070°26'815.3
2018-Jun-16 07:30N 42°39' W 070°18'815.0
2018-Jun-16 07:00N 42°43' W 070°10'2170.8
2018-Jun-16 07:00N 42°42' W 070°12'1020.0 270 / 161015.510.8 16.014.318.0
2018-Jun-16 06:30N 42°48' W 070°02'816.8
2018-Jun-16 06:00N 42°53' W 069°53'816.9
2018-Jun-16 05:30N 42°58' W 069°43'917.4
2018-Jun-16 05:00N 43°04' W 069°34'917.4
2018-Jun-16 04:30N 43°09' W 069°25'917.3
2018-Jun-16 04:00N 43°15' W 069°16'1217.4
2018-Jun-16 03:20N 43°22' W 069°04'1315.6
2018-Jun-16 02:31N 43°31' W 068°50'012.7
2018-Jun-16 02:29N 43°31' W 068°50'912.3
2018-Jun-16 01:47N 43°36' W 068°40'3912.4
2018-Jun-15 22:37N 44°08' W 068°08'216.9
2018-Jun-15 22:30N 44°10' W 068°08'  
2018-Jun-11 08:00N 48°54' W 067°42'18617.4 350 / 181023.210.8 8.5 14.0
2018-Jun-10 21:18N 46°50' W 071°09'3 8.6
2018-Jun-10 21:00N 46°49' W 071°12'0 0.1
2018-Jun-10 19:37N 46°49' W 071°12'0 0.0
2018-Jun-10 19:28N 46°49' W 071°12'0 0.0
2018-Jun-10 18:13N 46°49' W 071°12'0 0.0
2018-Jun-10 17:43N 46°49' W 071°12'0 0.0
2018-Jun-10 17:16N 46°49' W 071°12'0 0.0
2018-Jun-10 16:46N 46°49' W 071°12'0 0.0
2018-Jun-10 16:04N 46°49' W 071°12'0 0.0
2018-Jun-10 14:52N 46°49' W 071°12'0 0.0
2018-Jun-10 12:22N 46°49' W 071°12'0 0.0
2018-Jun-10 10:43N 46°49' W 071°12'0 0.0
2018-Jun-10 10:28N 46°49' W 071°12'0 0.5
2018-Jun-10 09:59N 46°49' W 071°12'84 9.3
2018-Jun-10 01:00N 46°08' W 072°57'5 9.9
2018-Jun-10 00:31N 46°04' W 073°02'4 8.8
2018-Jun-10 00:01N 46°03' W 073°08'4 7.4
2018-Jun-09 23:31N 45°60' W 073°11'5 9.5
2018-Jun-09 23:00N 45°55' W 073°13'5 9.7
2018-Jun-09 22:30N 45°51' W 073°16'5 9.9
2018-Jun-09 22:01N 45°47' W 073°21'5 9.9
2018-Jun-09 21:30N 45°44' W 073°26'612.3
2018-Jun-09 21:00N 45°38' W 073°29'810.3
2018-Jun-09 20:12N 45°30' W 073°33'0 0.0
2018-Jun-09 09:45N 45°30' W 073°33'2 5.9
2018-Jun-09 09:29N 45°32' W 073°32'5 9.3
2018-Jun-09 08:58N 45°36' W 073°30'510.2
2018-Jun-09 08:30N 45°41' W 073°27'510.2
2018-Jun-09 08:00N 45°45' W 073°24'510.5
2018-Jun-09 07:30N 45°49' W 073°19'510.7
2018-Jun-09 07:00N 45°53' W 073°14'510.6
2018-Jun-09 06:30N 45°58' W 073°12'611.5
2018-Jun-09 06:00N 46°03' W 073°08'9011.5
2018-Jun-08 22:12N 46°46' W 071°14'2 9.3
2018-Jun-08 21:58N 46°48' W 071°12'1 0.6
2018-Jun-08 20:15N 46°49' W 071°12'0 0.0
2018-Jun-08 19:57N 46°49' W 071°12'0 0.0
2018-Jun-08 18:29N 46°49' W 071°12'0 0.0
2018-Jun-08 18:00N 46°49' W 071°12'0 0.0
2018-Jun-08 17:24N 46°49' W 071°12'0 0.0
2018-Jun-08 16:56N 46°49' W 071°12'0 0.0
2018-Jun-08 16:29N 46°49' W 071°12'0 0.0
2018-Jun-08 15:57N 46°49' W 071°12'0 0.0
2018-Jun-08 15:20N 46°49' W 071°12'0 0.0
2018-Jun-08 15:00N 46°49' W 071°12'0 0.0
2018-Jun-08 14:12N 46°49' W 071°12'0 0.0
2018-Jun-08 12:36N 46°49' W 071°12'0 0.0
2018-Jun-08 12:30N 46°49' W 071°12'0 0.1
2018-Jun-08 11:59N 46°49' W 071°12'  

Dump ship's entire track history